sensor_id;sensor_type;location;lat;lon;timestamp;P1;durP1;ratioP1;P2;durP2;ratioP2
27305;SDS011;14792;50.886;6.468;2023-05-10T00:00:20;39.08;;;25.62;;
27305;SDS011;14792;50.886;6.468;2023-05-10T00:03:21;40.45;;;25.72;;
27305;SDS011;14792;50.886;6.468;2023-05-10T00:06:23;41.55;;;25.70;;
27305;SDS011;14792;50.886;6.468;2023-05-10T00:09:24;38.08;;;24.43;;
27305;SDS011;14792;50.886;6.468;2023-05-10T00:12:26;44.15;;;26.68;;
27305;SDS011;14792;50.886;6.468;2023-05-10T00:15:28;43.60;;;27.65;;
27305;SDS011;14792;50.886;6.468;2023-05-10T00:18:29;51.40;;;29.10;;
27305;SDS011;14792;50.886;6.468;2023-05-10T00:21:31;46.88;;;27.37;;
27305;SDS011;14792;50.886;6.468;2023-05-10T00:24:32;44.73;;;27.25;;
27305;SDS011;14792;50.886;6.468;2023-05-10T00:27:35;41.75;;;26.57;;
27305;SDS011;14792;50.886;6.468;2023-05-10T00:30:37;43.33;;;26.10;;
27305;SDS011;14792;50.886;6.468;2023-05-10T00:33:38;37.13;;;24.12;;
27305;SDS011;14792;50.886;6.468;2023-05-10T00:36:40;36.98;;;24.47;;
27305;SDS011;14792;50.886;6.468;2023-05-10T00:39:41;41.83;;;23.45;;
27305;SDS011;14792;50.886;6.468;2023-05-10T00:42:43;32.70;;;20.23;;
27305;SDS011;14792;50.886;6.468;2023-05-10T00:45:45;31.87;;;18.77;;
27305;SDS011;14792;50.886;6.468;2023-05-10T00:48:46;31.27;;;19.82;;
27305;SDS011;14792;50.886;6.468;2023-05-10T00:51:48;28.05;;;17.98;;
27305;SDS011;14792;50.886;6.468;2023-05-10T00:54:50;28.80;;;17.98;;
27305;SDS011;14792;50.886;6.468;2023-05-10T00:57:51;29.18;;;18.60;;
27305;SDS011;14792;50.886;6.468;2023-05-10T01:00:53;26.25;;;16.62;;
27305;SDS011;14792;50.886;6.468;2023-05-10T01:03:54;30.92;;;17.48;;
27305;SDS011;14792;50.886;6.468;2023-05-10T01:06:56;30.02;;;16.75;;
27305;SDS011;14792;50.886;6.468;2023-05-10T01:09:57;32.93;;;17.95;;
27305;SDS011;14792;50.886;6.468;2023-05-10T01:12:59;28.40;;;16.85;;
27305;SDS011;14792;50.886;6.468;2023-05-10T01:16:01;29.70;;;16.67;;
27305;SDS011;14792;50.886;6.468;2023-05-10T01:19:06;27.42;;;15.50;;
27305;SDS011;14792;50.886;6.468;2023-05-10T01:22:11;25.60;;;14.43;;
27305;SDS011;14792;50.886;6.468;2023-05-10T01:35:38;21.57;;;14.50;;
27305;SDS011;14792;50.886;6.468;2023-05-10T01:38:43;24.87;;;14.20;;
27305;SDS011;14792;50.886;6.468;2023-05-10T01:41:48;23.12;;;13.90;;
27305;SDS011;14792;50.886;6.468;2023-05-10T01:44:58;26.75;;;14.73;;
27305;SDS011;14792;50.886;6.468;2023-05-10T01:48:10;25.85;;;15.53;;
27305;SDS011;14792;50.886;6.468;2023-05-10T01:51:12;30.27;;;16.75;;
27305;SDS011;14792;50.886;6.468;2023-05-10T01:54:14;32.65;;;17.77;;
27305;SDS011;14792;50.886;6.468;2023-05-10T01:57:16;31.48;;;16.95;;
27305;SDS011;14792;50.886;6.468;2023-05-10T02:00:17;31.57;;;17.45;;
27305;SDS011;14792;50.886;6.468;2023-05-10T02:03:20;34.75;;;19.27;;
27305;SDS011;14792;50.886;6.468;2023-05-10T02:06:20;37.60;;;20.72;;
27305;SDS011;14792;50.886;6.468;2023-05-10T02:09:22;36.63;;;20.52;;
27305;SDS011;14792;50.886;6.468;2023-05-10T02:12:24;44.88;;;21.30;;
27305;SDS011;14792;50.886;6.468;2023-05-10T02:15:26;44.35;;;22.35;;
27305;SDS011;14792;50.886;6.468;2023-05-10T02:18:27;46.58;;;22.93;;
27305;SDS011;14792;50.886;6.468;2023-05-10T02:21:29;48.02;;;23.25;;
27305;SDS011;14792;50.886;6.468;2023-05-10T02:24:30;52.58;;;24.30;;
27305;SDS011;14792;50.886;6.468;2023-05-10T02:27:32;47.23;;;22.62;;
27305;SDS011;14792;50.886;6.468;2023-05-10T02:30:33;50.58;;;24.57;;
27305;SDS011;14792;50.886;6.468;2023-05-10T02:33:35;51.40;;;25.05;;
27305;SDS011;14792;50.886;6.468;2023-05-10T02:36:37;46.30;;;24.52;;
27305;SDS011;14792;50.886;6.468;2023-05-10T02:39:38;47.88;;;25.17;;
27305;SDS011;14792;50.886;6.468;2023-05-10T02:42:41;58.23;;;27.15;;
27305;SDS011;14792;50.886;6.468;2023-05-10T02:45:42;59.30;;;26.70;;
27305;SDS011;14792;50.886;6.468;2023-05-10T02:48:43;61.53;;;27.52;;
27305;SDS011;14792;50.886;6.468;2023-05-10T02:51:47;48.73;;;25.97;;
27305;SDS011;14792;50.886;6.468;2023-05-10T02:54:48;53.52;;;26.33;;
27305;SDS011;14792;50.886;6.468;2023-05-10T02:57:52;52.98;;;28.45;;
27305;SDS011;14792;50.886;6.468;2023-05-10T03:00:50;55.20;;;28.95;;
27305;SDS011;14792;50.886;6.468;2023-05-10T03:03:51;61.20;;;32.30;;
27305;SDS011;14792;50.886;6.468;2023-05-10T03:06:53;54.60;;;31.42;;
27305;SDS011;14792;50.886;6.468;2023-05-10T03:09:54;43.30;;;28.17;;
27305;SDS011;14792;50.886;6.468;2023-05-10T03:16:16;42.17;;;25.70;;
27305;SDS011;14792;50.886;6.468;2023-05-10T03:19:20;35.92;;;24.00;;
27305;SDS011;14792;50.886;6.468;2023-05-10T03:22:32;38.10;;;24.05;;
27305;SDS011;14792;50.886;6.468;2023-05-10T03:25:33;41.50;;;23.98;;
27305;SDS011;14792;50.886;6.468;2023-05-10T03:28:34;32.90;;;22.75;;
27305;SDS011;14792;50.886;6.468;2023-05-10T03:31:36;34.38;;;23.18;;
27305;SDS011;14792;50.886;6.468;2023-05-10T03:34:41;41.58;;;23.40;;
27305;SDS011;14792;50.886;6.468;2023-05-10T03:37:39;43.05;;;22.73;;
27305;SDS011;14792;50.886;6.468;2023-05-10T03:40:41;35.38;;;22.40;;
27305;SDS011;14792;50.886;6.468;2023-05-10T03:43:42;38.00;;;22.50;;
27305;SDS011;14792;50.886;6.468;2023-05-10T03:46:44;39.65;;;22.60;;
27305;SDS011;14792;50.886;6.468;2023-05-10T03:49:45;39.33;;;23.15;;
27305;SDS011;14792;50.886;6.468;2023-05-10T03:52:47;37.25;;;23.38;;
27305;SDS011;14792;50.886;6.468;2023-05-10T03:55:49;41.25;;;21.70;;
27305;SDS011;14792;50.886;6.468;2023-05-10T03:58:50;44.50;;;24.10;;
27305;SDS011;14792;50.886;6.468;2023-05-10T04:01:52;42.88;;;23.92;;
27305;SDS011;14792;50.886;6.468;2023-05-10T04:04:53;45.00;;;24.30;;
27305;SDS011;14792;50.886;6.468;2023-05-10T04:07:55;44.80;;;23.67;;
27305;SDS011;14792;50.886;6.468;2023-05-10T04:11:09;48.92;;;24.27;;
27305;SDS011;14792;50.886;6.468;2023-05-10T04:14:11;45.35;;;25.00;;
27305;SDS011;14792;50.886;6.468;2023-05-10T04:17:12;47.70;;;25.85;;
27305;SDS011;14792;50.886;6.468;2023-05-10T04:20:14;43.38;;;24.10;;
27305;SDS011;14792;50.886;6.468;2023-05-10T04:23:15;45.98;;;23.52;;
27305;SDS011;14792;50.886;6.468;2023-05-10T04:26:17;46.13;;;23.98;;
27305;SDS011;14792;50.886;6.468;2023-05-10T04:29:19;47.08;;;24.45;;
27305;SDS011;14792;50.886;6.468;2023-05-10T04:32:20;44.90;;;22.40;;
27305;SDS011;14792;50.886;6.468;2023-05-10T04:35:22;44.65;;;22.87;;
27305;SDS011;14792;50.886;6.468;2023-05-10T04:38:24;42.08;;;21.75;;
27305;SDS011;14792;50.886;6.468;2023-05-10T04:41:26;40.52;;;21.05;;
27305;SDS011;14792;50.886;6.468;2023-05-10T04:44:27;40.25;;;21.35;;
27305;SDS011;14792;50.886;6.468;2023-05-10T04:47:29;43.63;;;20.52;;
27305;SDS011;14792;50.886;6.468;2023-05-10T04:50:31;44.00;;;22.22;;
27305;SDS011;14792;50.886;6.468;2023-05-10T04:53:32;37.95;;;19.40;;
27305;SDS011;14792;50.886;6.468;2023-05-10T04:56:34;36.77;;;20.40;;
27305;SDS011;14792;50.886;6.468;2023-05-10T04:59:36;37.45;;;19.45;;
27305;SDS011;14792;50.886;6.468;2023-05-10T05:02:37;43.55;;;21.60;;
27305;SDS011;14792;50.886;6.468;2023-05-10T05:08:40;34.53;;;19.15;;
27305;SDS011;14792;50.886;6.468;2023-05-10T05:11:42;36.53;;;19.92;;
27305;SDS011;14792;50.886;6.468;2023-05-10T05:14:44;38.35;;;20.48;;
27305;SDS011;14792;50.886;6.468;2023-05-10T05:17:45;31.30;;;20.68;;
27305;SDS011;14792;50.886;6.468;2023-05-10T05:20:47;38.05;;;20.15;;
27305;SDS011;14792;50.886;6.468;2023-05-10T05:23:49;38.60;;;20.37;;
27305;SDS011;14792;50.886;6.468;2023-05-10T05:26:50;37.20;;;21.52;;
27305;SDS011;14792;50.886;6.468;2023-05-10T05:29:55;35.83;;;20.10;;
27305;SDS011;14792;50.886;6.468;2023-05-10T05:32:57;37.40;;;20.72;;
27305;SDS011;14792;50.886;6.468;2023-05-10T05:36:03;42.27;;;20.48;;
27305;SDS011;14792;50.886;6.468;2023-05-10T05:39:04;41.73;;;21.62;;
27305;SDS011;14792;50.886;6.468;2023-05-10T05:42:05;42.90;;;22.58;;
27305;SDS011;14792;50.886;6.468;2023-05-10T05:45:07;42.83;;;22.25;;
27305;SDS011;14792;50.886;6.468;2023-05-10T05:48:09;40.80;;;22.80;;
27305;SDS011;14792;50.886;6.468;2023-05-10T05:51:11;47.88;;;24.12;;
27305;SDS011;14792;50.886;6.468;2023-05-10T05:54:12;39.75;;;23.90;;
27305;SDS011;14792;50.886;6.468;2023-05-10T05:57:14;46.63;;;24.75;;
27305;SDS011;14792;50.886;6.468;2023-05-10T06:00:15;44.35;;;24.23;;
27305;SDS011;14792;50.886;6.468;2023-05-10T06:03:17;46.53;;;23.90;;
27305;SDS011;14792;50.886;6.468;2023-05-10T06:06:19;47.83;;;25.85;;
27305;SDS011;14792;50.886;6.468;2023-05-10T06:09:21;49.48;;;25.52;;
27305;SDS011;14792;50.886;6.468;2023-05-10T06:12:22;55.75;;;26.25;;
27305;SDS011;14792;50.886;6.468;2023-05-10T06:15:24;48.78;;;25.70;;
27305;SDS011;14792;50.886;6.468;2023-05-10T06:18:26;194.82;;;134.45;;
27305;SDS011;14792;50.886;6.468;2023-05-10T06:21:27;63.23;;;33.60;;
27305;SDS011;14792;50.886;6.468;2023-05-10T06:24:29;57.27;;;27.05;;
27305;SDS011;14792;50.886;6.468;2023-05-10T06:27:30;60.40;;;26.10;;
27305;SDS011;14792;50.886;6.468;2023-05-10T06:30:32;52.05;;;25.48;;
27305;SDS011;14792;50.886;6.468;2023-05-10T06:33:34;46.02;;;24.00;;
27305;SDS011;14792;50.886;6.468;2023-05-10T06:36:35;53.60;;;25.20;;
27305;SDS011;14792;50.886;6.468;2023-05-10T06:39:37;49.90;;;24.95;;
27305;SDS011;14792;50.886;6.468;2023-05-10T06:42:38;48.10;;;22.80;;
27305;SDS011;14792;50.886;6.468;2023-05-10T06:45:40;47.93;;;23.90;;
27305;SDS011;14792;50.886;6.468;2023-05-10T06:48:42;46.02;;;21.20;;
27305;SDS011;14792;50.886;6.468;2023-05-10T06:51:43;43.80;;;22.65;;
27305;SDS011;14792;50.886;6.468;2023-05-10T06:54:45;42.15;;;20.55;;
27305;SDS011;14792;50.886;6.468;2023-05-10T06:57:47;37.67;;;17.85;;
27305;SDS011;14792;50.886;6.468;2023-05-10T07:00:48;36.70;;;17.05;;
27305;SDS011;14792;50.886;6.468;2023-05-10T07:03:50;28.25;;;15.18;;
27305;SDS011;14792;50.886;6.468;2023-05-10T07:06:52;26.07;;;12.50;;
27305;SDS011;14792;50.886;6.468;2023-05-10T07:09:53;17.70;;;10.13;;
27305;SDS011;14792;50.886;6.468;2023-05-10T07:12:55;17.82;;;9.50;;
27305;SDS011;14792;50.886;6.468;2023-05-10T07:15:57;11.25;;;6.37;;
27305;SDS011;14792;50.886;6.468;2023-05-10T07:18:58;12.37;;;6.78;;
27305;SDS011;14792;50.886;6.468;2023-05-10T07:22:00;9.60;;;5.70;;
27305;SDS011;14792;50.886;6.468;2023-05-10T07:25:02;9.80;;;5.90;;
27305;SDS011;14792;50.886;6.468;2023-05-10T07:28:04;6.12;;;4.90;;
27305;SDS011;14792;50.886;6.468;2023-05-10T07:31:05;7.17;;;4.30;;
27305;SDS011;14792;50.886;6.468;2023-05-10T07:34:07;6.35;;;4.17;;
27305;SDS011;14792;50.886;6.468;2023-05-10T07:37:08;5.33;;;3.70;;
27305;SDS011;14792;50.886;6.468;2023-05-10T07:40:10;5.90;;;3.80;;
27305;SDS011;14792;50.886;6.468;2023-05-10T07:43:12;9.00;;;4.62;;
27305;SDS011;14792;50.886;6.468;2023-05-10T07:46:13;4.55;;;3.10;;
27305;SDS011;14792;50.886;6.468;2023-05-10T07:49:15;4.58;;;3.10;;
27305;SDS011;14792;50.886;6.468;2023-05-10T07:52:17;4.28;;;3.27;;
27305;SDS011;14792;50.886;6.468;2023-05-10T07:55:18;5.08;;;3.85;;
27305;SDS011;14792;50.886;6.468;2023-05-10T07:58:20;6.00;;;4.08;;
27305;SDS011;14792;50.886;6.468;2023-05-10T08:01:22;11.08;;;5.08;;
27305;SDS011;14792;50.886;6.468;2023-05-10T08:04:23;7.75;;;5.70;;
27305;SDS011;14792;50.886;6.468;2023-05-10T08:07:25;10.10;;;6.42;;
27305;SDS011;14792;50.886;6.468;2023-05-10T08:10:27;8.75;;;6.05;;
27305;SDS011;14792;50.886;6.468;2023-05-10T08:13:29;9.38;;;5.55;;
27305;SDS011;14792;50.886;6.468;2023-05-10T08:16:30;10.85;;;6.75;;
27305;SDS011;14792;50.886;6.468;2023-05-10T08:19:32;10.40;;;7.12;;
27305;SDS011;14792;50.886;6.468;2023-05-10T08:22:34;16.55;;;10.38;;
27305;SDS011;14792;50.886;6.468;2023-05-10T08:25:36;38.02;;;17.45;;
27305;SDS011;14792;50.886;6.468;2023-05-10T08:28:37;40.12;;;21.05;;
27305;SDS011;14792;50.886;6.468;2023-05-10T08:31:39;46.53;;;24.05;;
27305;SDS011;14792;50.886;6.468;2023-05-10T08:34:40;46.73;;;22.25;;
27305;SDS011;14792;50.886;6.468;2023-05-10T08:37:42;39.63;;;20.57;;
27305;SDS011;14792;50.886;6.468;2023-05-10T08:40:44;38.30;;;21.42;;
27305;SDS011;14792;50.886;6.468;2023-05-10T08:43:45;36.10;;;20.25;;
27305;SDS011;14792;50.886;6.468;2023-05-10T08:46:47;39.98;;;20.85;;
27305;SDS011;14792;50.886;6.468;2023-05-10T08:49:49;40.85;;;21.00;;
27305;SDS011;14792;50.886;6.468;2023-05-10T08:52:50;37.70;;;20.12;;
27305;SDS011;14792;50.886;6.468;2023-05-10T08:55:52;31.07;;;18.95;;
27305;SDS011;14792;50.886;6.468;2023-05-10T08:58:53;29.67;;;17.55;;
27305;SDS011;14792;50.886;6.468;2023-05-10T09:01:58;27.70;;;15.80;;
27305;SDS011;14792;50.886;6.468;2023-05-10T09:05:00;34.00;;;18.40;;
27305;SDS011;14792;50.886;6.468;2023-05-10T09:08:01;44.83;;;24.18;;
27305;SDS011;14792;50.886;6.468;2023-05-10T09:11:03;42.78;;;23.12;;
27305;SDS011;14792;50.886;6.468;2023-05-10T09:14:05;44.08;;;24.45;;
27305;SDS011;14792;50.886;6.468;2023-05-10T09:17:07;41.83;;;24.87;;
27305;SDS011;14792;50.886;6.468;2023-05-10T09:20:10;48.23;;;24.30;;
27305;SDS011;14792;50.886;6.468;2023-05-10T09:23:11;43.52;;;24.02;;
27305;SDS011;14792;50.886;6.468;2023-05-10T09:26:13;45.35;;;24.43;;
27305;SDS011;14792;50.886;6.468;2023-05-10T09:29:15;42.90;;;23.95;;
27305;SDS011;14792;50.886;6.468;2023-05-10T09:32:16;27.62;;;17.30;;
27305;SDS011;14792;50.886;6.468;2023-05-10T09:35:22;24.37;;;13.95;;
27305;SDS011;14792;50.886;6.468;2023-05-10T09:38:20;18.07;;;10.80;;
27305;SDS011;14792;50.886;6.468;2023-05-10T09:41:22;15.10;;;9.73;;
27305;SDS011;14792;50.886;6.468;2023-05-10T09:44:24;16.12;;;8.88;;
27305;SDS011;14792;50.886;6.468;2023-05-10T09:47:25;10.48;;;7.70;;
27305;SDS011;14792;50.886;6.468;2023-05-10T09:50:27;9.83;;;7.03;;
27305;SDS011;14792;50.886;6.468;2023-05-10T09:53:28;6.20;;;5.37;;
27305;SDS011;14792;50.886;6.468;2023-05-10T09:56:34;7.15;;;5.67;;
27305;SDS011;14792;50.886;6.468;2023-05-10T09:59:38;8.05;;;5.95;;
27305;SDS011;14792;50.886;6.468;2023-05-10T10:02:39;9.08;;;6.15;;
27305;SDS011;14792;50.886;6.468;2023-05-10T10:05:41;6.58;;;5.50;;
27305;SDS011;14792;50.886;6.468;2023-05-10T10:08:42;6.72;;;5.65;;
27305;SDS011;14792;50.886;6.468;2023-05-10T10:11:44;7.53;;;5.87;;
27305;SDS011;14792;50.886;6.468;2023-05-10T10:14:46;7.72;;;6.65;;
27305;SDS011;14792;50.886;6.468;2023-05-10T10:17:48;9.90;;;6.87;;
27305;SDS011;14792;50.886;6.468;2023-05-10T10:20:49;9.60;;;7.12;;
27305;SDS011;14792;50.886;6.468;2023-05-10T10:23:50;8.83;;;6.80;;
27305;SDS011;14792;50.886;6.468;2023-05-10T10:26:53;8.68;;;5.28;;
27305;SDS011;14792;50.886;6.468;2023-05-10T10:30:06;8.00;;;5.30;;
27305;SDS011;14792;50.886;6.468;2023-05-10T10:36:44;6.42;;;4.83;;
27305;SDS011;14792;50.886;6.468;2023-05-10T10:39:45;5.78;;;4.15;;
27305;SDS011;14792;50.886;6.468;2023-05-10T10:42:46;6.72;;;3.83;;
27305;SDS011;14792;50.886;6.468;2023-05-10T10:49:14;5.28;;;4.28;;
27305;SDS011;14792;50.886;6.468;2023-05-10T10:52:49;4.80;;;4.17;;
27305;SDS011;14792;50.886;6.468;2023-05-10T10:55:24;6.75;;;3.80;;
27305;SDS011;14792;50.886;6.468;2023-05-10T10:58:29;3.83;;;3.47;;
27305;SDS011;14792;50.886;6.468;2023-05-10T11:01:33;7.03;;;3.50;;
27305;SDS011;14792;50.886;6.468;2023-05-10T11:04:43;7.30;;;3.15;;
27305;SDS011;14792;50.886;6.468;2023-05-10T11:07:55;3.20;;;2.90;;
27305;SDS011;14792;50.886;6.468;2023-05-10T11:10:54;3.70;;;3.17;;
27305;SDS011;14792;50.886;6.468;2023-05-10T11:14:04;2.62;;;2.42;;
27305;SDS011;14792;50.886;6.468;2023-05-10T11:17:26;3.25;;;2.95;;
27305;SDS011;14792;50.886;6.468;2023-05-10T11:20:27;3.50;;;3.17;;
27305;SDS011;14792;50.886;6.468;2023-05-10T11:23:32;3.70;;;2.77;;
27305;SDS011;14792;50.886;6.468;2023-05-10T11:26:36;2.52;;;2.30;;
27305;SDS011;14792;50.886;6.468;2023-05-10T11:29:35;2.20;;;2.00;;
27305;SDS011;14792;50.886;6.468;2023-05-10T11:32:37;3.25;;;1.30;;
27305;SDS011;14792;50.886;6.468;2023-05-10T11:35:38;1.50;;;1.40;;
27305;SDS011;14792;50.886;6.468;2023-05-10T11:38:40;3.37;;;1.32;;
27305;SDS011;14792;50.886;6.468;2023-05-10T11:41:41;1.65;;;1.15;;
27305;SDS011;14792;50.886;6.468;2023-05-10T11:44:45;2.15;;;1.30;;
27305;SDS011;14792;50.886;6.468;2023-05-10T11:47:45;0.57;;;0.57;;
27305;SDS011;14792;50.886;6.468;2023-05-10T11:50:46;1.12;;;0.95;;
27305;SDS011;14792;50.886;6.468;2023-05-10T11:53:49;1.10;;;0.95;;
27305;SDS011;14792;50.886;6.468;2023-05-10T11:56:49;1.80;;;1.15;;
27305;SDS011;14792;50.886;6.468;2023-05-10T11:59:54;1.05;;;0.80;;
27305;SDS011;14792;50.886;6.468;2023-05-10T12:02:56;1.10;;;1.00;;
27305;SDS011;14792;50.886;6.468;2023-05-10T12:05:57;2.52;;;1.20;;
27305;SDS011;14792;50.886;6.468;2023-05-10T12:09:01;1.12;;;1.00;;
27305;SDS011;14792;50.886;6.468;2023-05-10T12:12:01;1.12;;;1.00;;
27305;SDS011;14792;50.886;6.468;2023-05-10T12:15:02;4.22;;;2.17;;
27305;SDS011;14792;50.886;6.468;2023-05-10T12:18:04;1.17;;;0.98;;
27305;SDS011;14792;50.886;6.468;2023-05-10T12:21:06;1.12;;;1.02;;
27305;SDS011;14792;50.886;6.468;2023-05-10T12:24:07;1.27;;;0.90;;
27305;SDS011;14792;50.886;6.468;2023-05-10T12:27:09;1.52;;;1.37;;
27305;SDS011;14792;50.886;6.468;2023-05-10T12:30:10;1.85;;;1.50;;
27305;SDS011;14792;50.886;6.468;2023-05-10T12:33:13;1.72;;;1.10;;
27305;SDS011;14792;50.886;6.468;2023-05-10T12:36:14;1.40;;;1.20;;
27305;SDS011;14792;50.886;6.468;2023-05-10T12:39:15;1.22;;;1.12;;
27305;SDS011;14792;50.886;6.468;2023-05-10T12:42:17;2.15;;;1.60;;
27305;SDS011;14792;50.886;6.468;2023-05-10T12:45:19;3.22;;;1.77;;
27305;SDS011;14792;50.886;6.468;2023-05-10T12:48:21;4.78;;;2.00;;
27305;SDS011;14792;50.886;6.468;2023-05-10T12:51:22;3.00;;;1.95;;
27305;SDS011;14792;50.886;6.468;2023-05-10T12:54:24;2.17;;;1.60;;
27305;SDS011;14792;50.886;6.468;2023-05-10T12:57:26;2.87;;;2.20;;
27305;SDS011;14792;50.886;6.468;2023-05-10T13:00:27;2.50;;;2.30;;
27305;SDS011;14792;50.886;6.468;2023-05-10T13:03:29;4.83;;;2.55;;
27305;SDS011;14792;50.886;6.468;2023-05-10T13:06:30;3.85;;;2.92;;
27305;SDS011;14792;50.886;6.468;2023-05-10T13:09:32;4.62;;;3.15;;
27305;SDS011;14792;50.886;6.468;2023-05-10T13:12:37;3.45;;;2.80;;
27305;SDS011;14792;50.886;6.468;2023-05-10T13:15:38;3.33;;;3.00;;
27305;SDS011;14792;50.886;6.468;2023-05-10T13:18:40;4.08;;;3.00;;
27305;SDS011;14792;50.886;6.468;2023-05-10T13:21:42;5.67;;;3.67;;
27305;SDS011;14792;50.886;6.468;2023-05-10T13:24:47;6.67;;;3.83;;
27305;SDS011;14792;50.886;6.468;2023-05-10T13:27:51;6.92;;;3.70;;
27305;SDS011;14792;50.886;6.468;2023-05-10T13:30:50;6.62;;;3.80;;
27305;SDS011;14792;50.886;6.468;2023-05-10T13:33:54;3.77;;;3.30;;
27305;SDS011;14792;50.886;6.468;2023-05-10T13:36:53;6.28;;;3.87;;
27305;SDS011;14792;50.886;6.468;2023-05-10T13:39:55;5.55;;;3.45;;
27305;SDS011;14792;50.886;6.468;2023-05-10T13:43:02;4.75;;;3.42;;
27305;SDS011;14792;50.886;6.468;2023-05-10T13:46:04;5.05;;;3.80;;
27305;SDS011;14792;50.886;6.468;2023-05-10T13:49:05;5.22;;;3.87;;
27305;SDS011;14792;50.886;6.468;2023-05-10T13:52:12;4.00;;;3.25;;
27305;SDS011;14792;50.886;6.468;2023-05-10T13:55:12;6.92;;;3.10;;
27305;SDS011;14792;50.886;6.468;2023-05-10T13:58:13;5.20;;;3.10;;
27305;SDS011;14792;50.886;6.468;2023-05-10T14:01:14;2.90;;;2.22;;
27305;SDS011;14792;50.886;6.468;2023-05-10T14:04:19;5.55;;;2.85;;
27305;SDS011;14792;50.886;6.468;2023-05-10T14:07:18;2.83;;;2.00;;
27305;SDS011;14792;50.886;6.468;2023-05-10T14:10:22;2.10;;;1.67;;
27305;SDS011;14792;50.886;6.468;2023-05-10T14:13:24;3.02;;;2.35;;
27305;SDS011;14792;50.886;6.468;2023-05-10T14:16:28;3.15;;;1.82;;
27305;SDS011;14792;50.886;6.468;2023-05-10T14:19:30;2.85;;;1.95;;
27305;SDS011;14792;50.886;6.468;2023-05-10T14:22:31;4.30;;;2.15;;
27305;SDS011;14792;50.886;6.468;2023-05-10T14:25:42;5.10;;;2.50;;
27305;SDS011;14792;50.886;6.468;2023-05-10T14:28:40;3.12;;;2.42;;
27305;SDS011;14792;50.886;6.468;2023-05-10T14:31:39;3.58;;;2.40;;
27305;SDS011;14792;50.886;6.468;2023-05-10T14:34:41;3.87;;;2.17;;
27305;SDS011;14792;50.886;6.468;2023-05-10T14:37:42;4.60;;;3.42;;
27305;SDS011;14792;50.886;6.468;2023-05-10T14:40:44;4.80;;;3.52;;
27305;SDS011;14792;50.886;6.468;2023-05-10T14:43:48;5.87;;;3.70;;
27305;SDS011;14792;50.886;6.468;2023-05-10T14:46:50;4.67;;;3.00;;
27305;SDS011;14792;50.886;6.468;2023-05-10T14:50:01;4.78;;;3.37;;
27305;SDS011;14792;50.886;6.468;2023-05-10T14:52:53;5.37;;;2.98;;
27305;SDS011;14792;50.886;6.468;2023-05-10T14:55:58;3.98;;;3.35;;
27305;SDS011;14792;50.886;6.468;2023-05-10T14:58:57;6.33;;;3.25;;
27305;SDS011;14792;50.886;6.468;2023-05-10T15:01:58;4.28;;;3.30;;
27305;SDS011;14792;50.886;6.468;2023-05-10T15:05:01;5.90;;;4.00;;
27305;SDS011;14792;50.886;6.468;2023-05-10T15:08:02;4.42;;;3.42;;
27305;SDS011;14792;50.886;6.468;2023-05-10T15:11:06;5.40;;;3.47;;
27305;SDS011;14792;50.886;6.468;2023-05-10T15:14:08;7.05;;;4.10;;
27305;SDS011;14792;50.886;6.468;2023-05-10T15:17:10;8.30;;;4.50;;
27305;SDS011;14792;50.886;6.468;2023-05-10T15:20:12;7.95;;;5.10;;
27305;SDS011;14792;50.886;6.468;2023-05-10T15:23:13;5.90;;;4.40;;
27305;SDS011;14792;50.886;6.468;2023-05-10T15:26:24;7.42;;;4.50;;
27305;SDS011;14792;50.886;6.468;2023-05-10T15:29:22;9.05;;;4.03;;
27305;SDS011;14792;50.886;6.468;2023-05-10T15:32:24;6.45;;;4.08;;
27305;SDS011;14792;50.886;6.468;2023-05-10T15:35:29;6.58;;;4.05;;
27305;SDS011;14792;50.886;6.468;2023-05-10T15:38:31;6.12;;;3.33;;
27305;SDS011;14792;50.886;6.468;2023-05-10T15:41:32;4.90;;;3.00;;
27305;SDS011;14792;50.886;6.468;2023-05-10T15:44:31;6.72;;;3.27;;
27305;SDS011;14792;50.886;6.468;2023-05-10T15:47:32;4.30;;;3.10;;
27305;SDS011;14792;50.886;6.468;2023-05-10T15:50:36;4.62;;;3.02;;
27305;SDS011;14792;50.886;6.468;2023-05-10T15:53:43;4.72;;;2.60;;
27305;SDS011;14792;50.886;6.468;2023-05-10T15:56:42;4.53;;;2.20;;
27305;SDS011;14792;50.886;6.468;2023-05-10T15:59:47;3.67;;;2.25;;
27305;SDS011;14792;50.886;6.468;2023-05-10T16:02:52;2.87;;;1.72;;
27305;SDS011;14792;50.886;6.468;2023-05-10T16:05:53;3.77;;;1.80;;
27305;SDS011;14792;50.886;6.468;2023-05-10T16:08:52;2.58;;;1.60;;
27305;SDS011;14792;50.886;6.468;2023-05-10T16:11:56;6.70;;;1.75;;
27305;SDS011;14792;50.886;6.468;2023-05-10T16:15:02;3.25;;;1.72;;
27305;SDS011;14792;50.886;6.468;2023-05-10T16:17:56;3.62;;;1.70;;
27305;SDS011;14792;50.886;6.468;2023-05-10T16:20:58;2.45;;;1.67;;
27305;SDS011;14792;50.886;6.468;2023-05-10T16:24:01;1.87;;;1.20;;
27305;SDS011;14792;50.886;6.468;2023-05-10T16:30:03;4.45;;;1.70;;
27305;SDS011;14792;50.886;6.468;2023-05-10T16:33:05;2.83;;;1.70;;
27305;SDS011;14792;50.886;6.468;2023-05-10T16:36:07;2.40;;;1.77;;
27305;SDS011;14792;50.886;6.468;2023-05-10T16:39:09;4.45;;;1.85;;
27305;SDS011;14792;50.886;6.468;2023-05-10T16:42:11;4.60;;;2.00;;
27305;SDS011;14792;50.886;6.468;2023-05-10T16:45:13;2.27;;;1.60;;
27305;SDS011;14792;50.886;6.468;2023-05-10T16:48:14;2.25;;;1.72;;
27305;SDS011;14792;50.886;6.468;2023-05-10T16:51:16;1.40;;;1.20;;
27305;SDS011;14792;50.886;6.468;2023-05-10T16:54:18;2.00;;;1.40;;
27305;SDS011;14792;50.886;6.468;2023-05-10T16:57:19;1.80;;;1.32;;
27305;SDS011;14792;50.886;6.468;2023-05-10T17:00:21;1.52;;;1.27;;
27305;SDS011;14792;50.886;6.468;2023-05-10T17:03:23;2.67;;;1.45;;
27305;SDS011;14792;50.886;6.468;2023-05-10T17:06:24;2.02;;;1.30;;
27305;SDS011;14792;50.886;6.468;2023-05-10T17:09:26;2.15;;;1.40;;
27305;SDS011;14792;50.886;6.468;2023-05-10T17:12:27;1.72;;;1.52;;
27305;SDS011;14792;50.886;6.468;2023-05-10T17:15:29;2.22;;;1.62;;
27305;SDS011;14792;50.886;6.468;2023-05-10T17:18:31;3.67;;;1.40;;
27305;SDS011;14792;50.886;6.468;2023-05-10T17:21:32;2.80;;;1.45;;
27305;SDS011;14792;50.886;6.468;2023-05-10T17:24:34;2.92;;;2.00;;
27305;SDS011;14792;50.886;6.468;2023-05-10T17:27:36;3.20;;;1.75;;
27305;SDS011;14792;50.886;6.468;2023-05-10T17:30:38;3.02;;;1.80;;
27305;SDS011;14792;50.886;6.468;2023-05-10T17:33:39;3.08;;;1.92;;
27305;SDS011;14792;50.886;6.468;2023-05-10T17:36:41;2.50;;;1.98;;
27305;SDS011;14792;50.886;6.468;2023-05-10T17:39:44;2.92;;;2.10;;
27305;SDS011;14792;50.886;6.468;2023-05-10T17:42:45;5.75;;;2.20;;
27305;SDS011;14792;50.886;6.468;2023-05-10T17:45:48;5.35;;;2.87;;
27305;SDS011;14792;50.886;6.468;2023-05-10T17:48:49;5.33;;;2.87;;
27305;SDS011;14792;50.886;6.468;2023-05-10T17:51:50;5.12;;;2.72;;
27305;SDS011;14792;50.886;6.468;2023-05-10T17:54:52;5.67;;;2.50;;
27305;SDS011;14792;50.886;6.468;2023-05-10T17:57:54;5.15;;;2.83;;
27305;SDS011;14792;50.886;6.468;2023-05-10T18:00:55;4.37;;;2.62;;
27305;SDS011;14792;50.886;6.468;2023-05-10T18:03:57;5.90;;;2.50;;
27305;SDS011;14792;50.886;6.468;2023-05-10T18:06:59;3.62;;;2.65;;
27305;SDS011;14792;50.886;6.468;2023-05-10T18:10:03;2.90;;;2.15;;
27305;SDS011;14792;50.886;6.468;2023-05-10T18:13:04;3.05;;;2.10;;
27305;SDS011;14792;50.886;6.468;2023-05-10T18:16:06;2.98;;;2.00;;
27305;SDS011;14792;50.886;6.468;2023-05-10T18:19:10;2.77;;;1.40;;
27305;SDS011;14792;50.886;6.468;2023-05-10T18:22:12;4.25;;;1.92;;
27305;SDS011;14792;50.886;6.468;2023-05-10T18:25:13;1.87;;;1.17;;
27305;SDS011;14792;50.886;6.468;2023-05-10T18:28:15;2.72;;;1.20;;